Terminal Aerodrome Forecast
Issued by NWS Omaha/Valley, NE

Home | Current Version | Previous Version | Text Only | Print | Product List | Glossary On
Versions: 1 2 3 4 5 6 7 8 9 10 11 12 13 14 15
000
FTUS43 KOAX 011137
TAFOMA
TAF
KOMA 011137Z 0112/0212 00000KT P6SM OVC030
      TEMPO 0112/0115 5SM BR
     FM011900 VRB03KT P6SM OVC050
     FM020600 14003KT P6SM SCT250=

USA.gov is the U.S. government's official web portal to all federal, state and local government web resources and services.